Time;durP1;ratioP1;P1;durP2;ratioP2;P2;SDS_P1;SDS_P2;PMS_P1;PMS_P2;Temp;Humidity;BMP_temperature;BMP_pressure;BME280_temperature;BME280_humidity;BME280_pressure;Samples;Min_cycle;Max_cycle;Signal;HPM_P1;HPM_P2
2024/03/24 00:01:58;;;;;;;3.67;2.17;;;4.90;99.90;;;;;;6155380;23;20504;-63
2024/03/24 00:04:26;;;;;;;4.97;2.10;;;4.90;99.90;;;;;;6155124;23;20453;-62
2024/03/24 00:06:52;;;;;;;9.77;4.97;;;4.90;99.90;;;;;;6155032;23;20492;-62
2024/03/24 00:09:19;;;;;;;8.20;3.10;;;4.90;99.90;;;;;;6155306;23;20469;-60
2024/03/24 00:11:46;;;;;;;6.57;3.53;;;4.90;99.90;;;;;;6155278;23;20454;-63
2024/03/24 00:14:14;;;;;;;5.97;3.17;;;4.90;99.90;;;;;;6154800;23;20413;-59
2024/03/24 00:16:40;;;;;;;6.03;2.80;;;5.00;99.90;;;;;;6154644;23;20418;-61
2024/03/24 00:19:07;;;;;;;2.07;1.87;;;5.00;99.90;;;;;;6155102;23;20735;-61
2024/03/24 00:21:42;;;;;;;2.30;1.97;;;5.00;99.90;;;;;;6154167;23;20437;-62
2024/03/24 00:24:08;;;;;;;3.67;2.33;;;5.00;99.90;;;;;;6154268;23;20421;-62
2024/03/24 00:26:37;;;;;;;5.90;2.43;;;5.00;99.90;;;;;;6155054;23;20407;-63
2024/03/24 00:29:04;;;;;;;4.30;2.67;;;5.00;99.90;;;;;;6154158;23;20525;-61
2024/03/24 00:31:31;;;;;;;3.40;3.07;;;5.00;99.90;;;;;;6154821;23;20488;-61
2024/03/24 00:34:00;;;;;;;3.83;2.40;;;5.00;99.90;;;;;;6154103;23;20406;-61
2024/03/24 00:36:29;;;;;;;3.20;2.50;;;5.00;99.90;;;;;;6155169;23;20406;-60
2024/03/24 00:38:56;;;;;;;5.60;2.70;;;4.90;99.90;;;;;;6154537;23;20404;-62
2024/03/24 00:41:22;;;;;;;4.43;2.77;;;4.90;99.90;;;;;;6154126;23;20406;-61
2024/03/24 00:43:48;;;;;;;5.03;2.63;;;4.90;99.90;;;;;;6154804;23;20402;-60
2024/03/24 00:46:14;;;;;;;3.43;2.20;;;4.90;99.90;;;;;;6153980;23;20402;-59
2024/03/24 00:48:43;;;;;;;4.90;2.60;;;5.00;99.90;;;;;;6154378;23;20438;-61
2024/03/24 00:51:09;;;;;;;5.47;2.93;;;5.10;99.90;;;;;;6154991;23;20762;-61
2024/03/24 00:53:35;;;;;;;4.90;2.37;;;5.10;99.90;;;;;;6154228;23;20433;-59
2024/03/24 00:56:01;;;;;;;3.40;2.23;;;5.10;99.90;;;;;;6154692;23;20278;-61
2024/03/24 00:58:29;;;;;;;4.97;2.60;;;5.20;99.90;;;;;;6154205;23;20798;-60
2024/03/24 01:00:56;;;;;;;1.97;1.70;;;5.20;99.90;;;;;;6153622;23;20456;-58
2024/03/24 01:03:23;;;;;;;2.80;1.80;;;5.20;99.90;;;;;;6154013;23;20426;-62
2024/03/24 01:05:50;;;;;;;4.53;3.03;;;5.10;99.90;;;;;;6154798;23;20434;-61
2024/03/24 01:08:17;;;;;;;4.27;3.07;;;5.10;99.90;;;;;;6153820;23;20440;-60
2024/03/24 01:10:43;;;;;;;3.80;2.53;;;5.10;99.90;;;;;;6154846;23;20402;-61
2024/03/24 01:13:10;;;;;;;6.17;3.20;;;5.10;99.90;;;;;;6153516;23;20966;-62
2024/03/24 01:15:36;;;;;;;8.33;2.37;;;5.00;99.90;;;;;;6154040;23;20485;-61
2024/03/24 01:18:09;;;;;;;3.80;3.03;;;5.00;99.90;;;;;;6154800;23;20489;-66
2024/03/24 01:20:35;;;;;;;5.40;3.20;;;4.90;99.90;;;;;;6154092;23;20446;-61
2024/03/24 01:23:04;;;;;;;5.33;3.30;;;4.90;99.90;;;;;;6153590;23;20437;-59
2024/03/24 01:25:31;;;;;;;3.93;3.03;;;4.90;99.90;;;;;;6154302;23;20408;-60
2024/03/24 01:27:58;;;;;;;4.73;2.53;;;4.90;99.90;;;;;;6153196;23;20409;-61
2024/03/24 01:30:24;;;;;;;5.13;3.23;;;4.80;99.90;;;;;;6154355;23;20461;-62
2024/03/24 01:32:51;;;;;;;8.50;4.40;;;4.80;99.90;;;;;;6153862;23;20422;-61
2024/03/24 01:35:17;;;;;;;11.00;3.20;;;4.90;99.90;;;;;;6153948;23;20432;-59
2024/03/24 01:37:44;;;;;;;5.73;3.77;;;4.80;99.90;;;;;;6154444;23;20408;-62
2024/03/24 01:40:11;;;;;;;4.93;3.33;;;4.80;99.90;;;;;;6153853;23;20481;-61
2024/03/24 01:42:38;;;;;;;3.50;2.57;;;4.80;99.90;;;;;;6152956;23;20426;-62
2024/03/24 01:45:05;;;;;;;7.60;2.33;;;4.70;99.90;;;;;;6153974;23;20429;-61
2024/03/24 01:47:33;;;;;;;7.83;3.77;;;4.70;99.90;;;;;;6153973;23;20824;-61
2024/03/24 01:50:00;;;;;;;5.00;3.00;;;4.70;99.90;;;;;;6153937;23;20478;-60
2024/03/24 01:52:27;;;;;;;3.67;2.27;;;4.70;99.90;;;;;;6153802;23;20450;-60
2024/03/24 01:54:54;;;;;;;6.73;3.87;;;4.70;99.90;;;;;;6153392;23;20490;-61
2024/03/24 01:57:22;;;;;;;7.40;3.93;;;4.70;99.90;;;;;;6153520;23;20461;-60
2024/03/24 01:59:49;;;;;;;7.07;4.37;;;4.70;99.90;;;;;;6153526;23;20436;-62
2024/03/24 02:02:16;;;;;;;6.43;4.40;;;4.70;99.90;;;;;;6153046;23;20429;-60
2024/03/24 02:04:46;;;;;;;5.00;2.80;;;4.60;99.90;;;;;;6154254;23;20920;-60
2024/03/24 02:07:13;;;;;;;16.27;6.23;;;4.60;99.90;;;;;;6153903;23;20471;-60
2024/03/24 02:09:39;;;;;;;5.70;3.17;;;4.60;99.90;;;;;;6153472;23;20492;-62
2024/03/24 02:12:06;;;;;;;8.37;4.20;;;4.60;99.90;;;;;;6152999;23;20430;-61
2024/03/24 02:14:34;;;;;;;6.40;3.50;;;4.60;99.90;;;;;;6153549;23;20417;-61
2024/03/24 02:17:01;;;;;;;4.13;2.57;;;4.50;99.90;;;;;;6154186;23;20387;-60
2024/03/24 02:19:27;;;;;;;6.80;3.53;;;4.40;99.90;;;;;;6153944;23;20398;-59
2024/03/24 02:21:54;;;;;;;11.10;4.60;;;4.40;99.90;;;;;;6153314;23;20506;-61
2024/03/24 02:24:21;;;;;;;6.43;3.10;;;4.50;99.90;;;;;;6154129;23;20480;-61
2024/03/24 02:26:49;;;;;;;5.07;3.10;;;4.40;99.90;;;;;;6153497;23;20936;-60
2024/03/24 02:29:15;;;;;;;5.60;3.20;;;4.40;99.90;;;;;;6153140;23;21084;-62
2024/03/24 02:31:42;;;;;;;4.20;2.80;;;4.50;99.90;;;;;;6153644;23;20442;-61
2024/03/24 02:34:08;;;;;;;5.73;3.50;;;4.50;99.90;;;;;;6153722;23;20493;-63
2024/03/24 02:36:35;;;;;;;4.83;3.50;;;4.40;99.90;;;;;;6153465;23;20411;-60
2024/03/24 02:39:01;;;;;;;9.47;4.00;;;4.40;99.90;;;;;;6153255;23;20433;-62
2024/03/24 02:41:29;;;;;;;6.03;2.70;;;4.40;99.90;;;;;;6153510;23;20402;-60
2024/03/24 02:43:55;;;;;;;6.07;3.70;;;4.40;99.90;;;;;;6153030;23;20406;-58
2024/03/24 02:46:22;;;;;;;13.23;5.73;;;4.40;99.90;;;;;;6154516;23;20437;-60
2024/03/24 02:48:48;;;;;;;6.27;2.93;;;4.40;99.90;;;;;;6155079;23;20190;-59
2024/03/24 02:51:14;;;;;;;6.40;3.93;;;4.40;99.90;;;;;;6156006;23;20401;-60
2024/03/24 02:53:40;;;;;;;6.40;2.83;;;4.40;99.90;;;;;;6155475;23;20453;-60
2024/03/24 02:56:10;;;;;;;12.37;6.43;;;4.40;99.90;;;;;;6155284;23;20429;-59
2024/03/24 02:58:37;;;;;;;7.37;3.63;;;4.40;99.90;;;;;;6155809;23;20171;-61
2024/03/24 03:01:04;;;;;;;9.37;3.30;;;4.40;99.90;;;;;;6155364;23;20402;-60
2024/03/24 03:03:32;;;;;;;7.43;3.33;;;4.50;99.90;;;;;;6155321;23;20429;-62
2024/03/24 03:05:59;;;;;;;4.83;3.00;;;4.50;99.90;;;;;;6155544;23;20397;-61
2024/03/24 03:08:49;;;;;;;10.00;3.13;;;4.50;99.90;;;;;;6155290;23;20850;-58
2024/03/24 03:11:16;;;;;;;11.60;3.00;;;4.40;99.90;;;;;;6125958;23;20410;-60
2024/03/24 03:13:43;;;;;;;9.80;4.63;;;4.40;99.90;;;;;;6155047;23;20928;-61
2024/03/24 03:16:10;;;;;;;6.33;3.63;;;4.40;99.90;;;;;;6155190;23;20443;-59
2024/03/24 03:18:36;;;;;;;12.90;3.40;;;4.40;99.90;;;;;;6155258;23;20422;-59
2024/03/24 03:21:03;;;;;;;6.17;3.27;;;4.30;99.90;;;;;;6155057;23;20444;-61
2024/03/24 03:23:28;;;;;;;4.90;2.87;;;4.40;99.90;;;;;;6155327;23;20446;-61
2024/03/24 03:25:55;;;;;;;5.20;3.20;;;4.30;99.90;;;;;;6155333;23;20421;-60
2024/03/24 03:28:21;;;;;;;6.70;3.43;;;4.30;99.90;;;;;;6155185;23;20266;-60
2024/03/24 03:30:49;;;;;;;7.43;2.90;;;4.20;99.90;;;;;;6155513;23;20746;-60
2024/03/24 03:33:15;;;;;;;6.30;2.93;;;4.20;99.90;;;;;;6154337;23;20449;-62
2024/03/24 03:35:42;;;;;;;8.37;3.60;;;4.20;99.90;;;;;;6154412;23;20409;-61
2024/03/24 03:38:08;;;;;;;5.03;3.87;;;4.20;99.90;;;;;;6154554;23;20258;-59
2024/03/24 03:40:35;;;;;;;4.77;2.83;;;4.20;99.90;;;;;;6155018;23;20486;-60
2024/03/24 03:43:01;;;;;;;4.30;2.70;;;4.20;99.90;;;;;;6154942;23;20423;-62
2024/03/24 03:45:28;;;;;;;6.43;2.80;;;4.30;99.90;;;;;;6154835;23;20452;-61
2024/03/24 03:47:55;;;;;;;4.93;2.83;;;4.30;99.90;;;;;;6155090;23;20453;-56
2024/03/24 03:50:23;;;;;;;6.50;3.17;;;4.20;99.90;;;;;;6155153;23;20592;-59
2024/03/24 03:52:49;;;;;;;4.00;3.07;;;4.20;99.90;;;;;;6154482;23;20518;-61
2024/03/24 03:55:16;;;;;;;3.87;2.80;;;4.20;99.90;;;;;;6155389;23;20477;-58
2024/03/24 03:57:43;;;;;;;5.93;3.40;;;4.20;99.90;;;;;;6154566;23;20935;-59
2024/03/24 04:00:11;;;;;;;7.00;2.97;;;4.20;99.90;;;;;;6154944;23;20404;-58
2024/03/24 04:02:38;;;;;;;4.90;3.77;;;4.20;99.90;;;;;;6154624;23;20430;-59
2024/03/24 04:05:09;;;;;;;4.70;3.30;;;4.20;99.90;;;;;;6154878;23;20445;-58
2024/03/24 04:07:38;;;;;;;7.53;3.47;;;4.20;99.90;;;;;;6155254;23;20414;-61
2024/03/24 04:10:06;;;;;;;5.23;3.20;;;4.20;99.90;;;;;;6154522;23;20477;-58
2024/03/24 04:12:32;;;;;;;6.10;4.30;;;4.20;99.90;;;;;;6154585;23;20457;-61
2024/03/24 04:15:00;;;;;;;4.40;3.13;;;4.20;99.90;;;;;;6154057;23;20418;-61
2024/03/24 04:17:26;;;;;;;4.43;3.53;;;4.20;99.90;;;;;;6155110;23;20438;-58
2024/03/24 04:19:52;;;;;;;4.40;3.03;;;4.20;99.90;;;;;;6154573;23;20901;-61
2024/03/24 04:22:20;;;;;;;4.70;2.70;;;4.30;99.90;;;;;;6154545;23;20505;-62
2024/03/24 04:24:47;;;;;;;4.33;3.60;;;4.30;99.90;;;;;;6154614;23;20749;-62
2024/03/24 04:27:13;;;;;;;4.27;3.10;;;4.30;99.90;;;;;;6155182;23;20430;-60
2024/03/24 04:29:40;;;;;;;5.70;3.80;;;4.30;99.90;;;;;;6154355;23;20453;-61
2024/03/24 04:32:06;;;;;;;5.13;3.10;;;4.30;99.90;;;;;;6153816;23;20429;-62
2024/03/24 04:34:33;;;;;;;5.90;3.93;;;4.30;99.90;;;;;;6154441;23;20402;-60
2024/03/24 04:36:59;;;;;;;6.17;3.53;;;4.30;99.90;;;;;;6154893;23;20434;-60
2024/03/24 04:39:29;;;;;;;11.70;3.57;;;4.30;99.90;;;;;;6154222;23;20410;-60
2024/03/24 04:41:56;;;;;;;5.20;3.67;;;4.30;99.90;;;;;;6154607;23;20664;-59
2024/03/24 04:44:23;;;;;;;7.33;3.33;;;4.30;99.90;;;;;;6153937;23;20494;-60
2024/03/24 04:46:49;;;;;;;6.17;3.63;;;4.20;99.90;;;;;;6154763;23;20459;-61
2024/03/24 04:49:15;;;;;;;7.40;3.33;;;4.30;99.90;;;;;;6154471;23;20434;-59
2024/03/24 04:51:41;;;;;;;4.10;3.60;;;4.20;99.90;;;;;;6153854;23;20199;-59
2024/03/24 04:54:08;;;;;;;5.57;3.50;;;4.30;99.90;;;;;;6154591;23;20931;-60
2024/03/24 04:56:35;;;;;;;6.93;4.20;;;4.30;99.90;;;;;;6154539;23;20174;-59
2024/03/24 04:59:03;;;;;;;4.43;3.20;;;4.30;99.90;;;;;;6154394;23;20411;-60
2024/03/24 05:01:29;;;;;;;5.10;3.30;;;4.30;99.90;;;;;;6154520;23;20406;-59
2024/03/24 05:03:55;;;;;;;3.87;3.27;;;4.20;99.90;;;;;;6154456;23;20409;-60
2024/03/24 05:06:21;;;;;;;4.43;3.17;;;4.20;99.90;;;;;;6154649;23;20944;-59
2024/03/24 05:08:51;;;;;;;4.17;2.90;;;4.20;99.90;;;;;;6153811;23;20438;-61
2024/03/24 05:11:16;;;;;;;4.30;3.30;;;4.30;99.90;;;;;;6153625;23;20248;-61
2024/03/24 05:13:48;;;;;;;5.37;3.53;;;4.30;99.90;;;;;;6153858;23;20414;-61
2024/03/24 05:16:13;;;;;;;4.33;2.80;;;4.40;99.90;;;;;;6154081;23;20574;-59
2024/03/24 05:18:40;;;;;;;4.33;2.77;;;4.40;99.90;;;;;;6154510;23;20426;-61
2024/03/24 05:21:07;;;;;;;9.10;4.03;;;4.40;99.90;;;;;;6154620;23;20202;-59
2024/03/24 05:23:34;;;;;;;4.13;3.07;;;4.30;99.90;;;;;;6153877;23;20426;-59
2024/03/24 05:26:00;;;;;;;4.90;3.50;;;4.30;99.90;;;;;;6154578;23;20402;-60
2024/03/24 05:28:27;;;;;;;3.87;3.03;;;4.40;99.90;;;;;;6154045;23;20464;-60
2024/03/24 05:30:54;;;;;;;4.53;2.60;;;4.40;99.90;;;;;;6153719;23;20986;-60
2024/03/24 05:33:21;;;;;;;5.70;3.73;;;4.50;99.90;;;;;;6154175;23;20426;-62
2024/03/24 05:35:47;;;;;;;5.30;3.60;;;4.50;99.90;;;;;;6153976;23;20426;-59
2024/03/24 05:38:14;;;;;;;5.23;3.30;;;4.50;99.90;;;;;;6154151;23;20398;-59
2024/03/24 05:40:40;;;;;;;3.67;2.83;;;4.50;99.90;;;;;;6154235;23;20403;-58
2024/03/24 05:43:06;;;;;;;5.30;3.57;;;4.50;99.90;;;;;;6153834;23;20492;-61
2024/03/24 05:45:34;;;;;;;4.73;3.07;;;4.50;99.90;;;;;;6153600;23;20263;-61
2024/03/24 05:48:02;;;;;;;7.43;3.90;;;4.50;99.90;;;;;;6153606;23;20409;-61
2024/03/24 05:50:28;;;;;;;4.37;2.93;;;4.50;99.90;;;;;;6154119;23;20523;-62
2024/03/24 05:52:55;;;;;;;5.10;3.53;;;4.60;99.90;;;;;;6153776;23;20905;-58
2024/03/24 05:55:21;;;;;;;5.17;3.23;;;4.60;99.90;;;;;;6154279;23;20405;-62
2024/03/24 05:57:49;;;;;;;6.60;3.77;;;4.60;99.90;;;;;;6154275;23;20402;-58
2024/03/24 06:00:15;;;;;;;6.90;3.87;;;4.60;99.90;;;;;;6153905;23;20408;-57
2024/03/24 06:02:42;;;;;;;4.83;3.13;;;4.60;99.90;;;;;;6154100;23;20774;-59
2024/03/24 06:05:09;;;;;;;7.63;4.03;;;4.70;99.90;;;;;;6152884;23;20410;-60
2024/03/24 06:07:36;;;;;;;4.30;3.00;;;4.70;99.90;;;;;;6154005;23;20410;-59
2024/03/24 06:10:03;;;;;;;9.43;3.47;;;4.80;99.90;;;;;;6154081;23;20452;-58
2024/03/24 06:12:31;;;;;;;6.20;3.13;;;4.80;99.90;;;;;;6154011;23;20480;-56
2024/03/24 06:14:57;;;;;;;6.90;4.10;;;4.80;99.90;;;;;;6154099;23;20753;-57
2024/03/24 06:17:23;;;;;;;6.40;4.00;;;4.80;99.90;;;;;;6153689;23;20963;-60
2024/03/24 06:19:50;;;;;;;5.40;3.60;;;4.80;99.90;;;;;;6154572;23;20775;-61
2024/03/24 06:22:18;;;;;;;5.63;3.97;;;4.80;99.90;;;;;;6155650;23;20426;-62
2024/03/24 06:24:44;;;;;;;5.80;3.80;;;4.80;99.90;;;;;;6155129;23;20402;-62
2024/03/24 06:27:11;;;;;;;4.60;2.83;;;4.90;99.90;;;;;;6156267;23;20932;-61
2024/03/24 06:29:37;;;;;;;6.53;3.80;;;5.00;99.90;;;;;;6155868;23;20481;-61
2024/03/24 06:32:04;;;;;;;5.63;3.27;;;5.00;99.90;;;;;;6155684;23;20433;-59
2024/03/24 06:34:30;;;;;;;5.60;3.50;;;5.00;99.90;;;;;;6155899;23;20210;-60
2024/03/24 06:36:57;;;;;;;5.50;3.23;;;5.00;99.90;;;;;;6155462;23;20402;-60
2024/03/24 06:39:24;;;;;;;6.10;3.00;;;5.10;99.90;;;;;;6155601;23;20229;-62
2024/03/24 06:41:51;;;;;;;8.43;3.20;;;5.10;99.90;;;;;;6155210;23;20430;-58
2024/03/24 06:44:17;;;;;;;6.17;3.50;;;5.20;99.90;;;;;;6155391;23;20410;-61
2024/03/24 06:46:45;;;;;;;4.00;2.93;;;5.30;99.90;;;;;;6155580;23;20407;-60
2024/03/24 06:49:10;;;;;;;7.67;3.00;;;5.30;99.90;;;;;;6154123;23;20740;-53
2024/03/24 06:51:38;;;;;;;2.83;2.03;;;5.30;99.90;;;;;;6155064;23;20412;-53
2024/03/24 06:54:04;;;;;;;3.67;2.57;;;5.50;99.90;;;;;;6155200;23;20410;-50
2024/03/24 06:56:32;;;;;;;5.03;2.90;;;5.60;99.90;;;;;;6156100;23;20398;-53
2024/03/24 06:58:58;;;;;;;3.53;2.70;;;5.70;99.90;;;;;;6155704;23;20436;-50
2024/03/24 07:01:25;;;;;;;3.97;2.70;;;5.70;99.90;;;;;;6154942;23;20408;-51
2024/03/24 07:03:50;;;;;;;3.80;2.83;;;5.70;99.90;;;;;;6151260;23;20183;-52
2024/03/24 07:06:17;;;;;;;4.57;2.80;;;5.70;99.90;;;;;;6154437;23;20413;-52
2024/03/24 07:08:43;;;;;;;5.23;2.60;;;5.70;99.90;;;;;;6154242;23;20254;-51
2024/03/24 07:11:10;;;;;;;3.87;3.03;;;5.70;99.90;;;;;;6155578;23;20473;-49
2024/03/24 07:13:37;;;;;;;7.20;2.77;;;5.80;99.90;;;;;;6153718;23;20840;-52
2024/03/24 07:16:04;;;;;;;3.20;2.47;;;5.80;99.90;;;;;;6155109;23;20414;-51
2024/03/24 07:18:30;;;;;;;3.47;2.87;;;5.80;99.90;;;;;;6154335;23;20488;-52
2024/03/24 07:21:00;;;;;;;3.53;2.40;;;5.90;99.90;;;;;;6154783;23;20429;-54
2024/03/24 07:23:26;;;;;;;3.57;2.97;;;5.90;99.90;;;;;;6154823;23;20713;-57
2024/03/24 07:25:53;;;;;;;4.53;1.87;;;6.00;99.90;;;;;;6154926;23;20448;-55
2024/03/24 07:28:19;;;;;;;5.80;2.90;;;6.00;99.90;;;;;;6155012;23;20424;-52
2024/03/24 07:30:48;;;;;;;4.57;2.60;;;6.00;99.90;;;;;;6154486;23;20438;-52
2024/03/24 07:33:14;;;;;;;7.67;3.20;;;6.10;99.90;;;;;;6154072;23;20449;-52
2024/03/24 07:35:41;;;;;;;3.80;2.50;;;6.20;99.90;;;;;;6155434;23;20407;-53
2024/03/24 07:38:07;;;;;;;4.67;3.00;;;6.20;99.90;;;;;;6154993;23;20909;-53
2024/03/24 07:40:33;;;;;;;3.50;2.40;;;6.30;99.90;;;;;;6155263;23;20497;-52
2024/03/24 07:42:59;;;;;;;3.40;2.43;;;6.40;99.90;;;;;;6155045;23;20460;-52
2024/03/24 07:45:27;;;;;;;2.63;2.10;;;6.50;99.90;;;;;;6154717;23;20438;-52
2024/03/24 07:47:54;;;;;;;4.00;2.10;;;6.60;99.90;;;;;;6155180;23;20497;-53
2024/03/24 07:50:20;;;;;;;3.23;2.70;;;6.80;99.90;;;;;;6153038;23;20468;-60
2024/03/24 07:52:47;;;;;;;3.80;2.43;;;7.00;99.90;;;;;;6154503;23;21027;-62
2024/03/24 07:55:14;;;;;;;3.90;2.47;;;7.10;99.90;;;;;;6155551;23;20779;-62
2024/03/24 07:57:39;;;;;;;4.60;3.23;;;7.10;99.90;;;;;;6155374;23;20738;-60
2024/03/24 08:00:09;;;;;;;4.47;2.40;;;7.10;99.90;;;;;;6155204;23;20453;-59
2024/03/24 08:02:35;;;;;;;2.50;1.93;;;7.10;99.90;;;;;;6154431;23;20265;-60
2024/03/24 08:05:04;;;;;;;5.67;2.00;;;7.20;99.90;;;;;;6153595;23;20402;-60
2024/03/24 08:07:29;;;;;;;2.57;2.00;;;7.30;99.90;;;;;;6154661;23;20490;-62
2024/03/24 08:09:56;;;;;;;3.60;2.37;;;7.30;99.90;;;;;;6153147;23;20955;-57
2024/03/24 08:12:23;;;;;;;3.20;1.90;;;7.50;99.90;;;;;;6153609;23;20226;-59
2024/03/24 08:14:49;;;;;;;4.20;2.70;;;7.50;99.90;;;;;;6154412;23;20438;-60
2024/03/24 08:17:16;;;;;;;3.60;1.90;;;7.60;99.90;;;;;;6154677;23;20874;-58
2024/03/24 08:19:42;;;;;;;3.63;1.83;;;7.60;99.90;;;;;;6153550;23;20174;-59
2024/03/24 08:22:10;;;;;;;3.60;1.87;;;7.80;99.90;;;;;;6154219;23;20457;-60
2024/03/24 08:24:36;;;;;;;2.97;1.90;;;8.00;99.90;;;;;;6154590;23;20213;-58
2024/03/24 08:27:03;;;;;;;2.80;2.10;;;8.00;99.90;;;;;;6154203;23;20461;-60
2024/03/24 08:29:29;;;;;;;3.00;2.07;;;8.50;99.90;;;;;;6154493;23;20541;-62
2024/03/24 08:31:56;;;;;;;2.20;1.70;;;9.40;99.90;;;;;;6154313;23;20458;-62
2024/03/24 08:34:22;;;;;;;2.43;1.80;;;10.30;99.90;;;;;;6153998;23;20183;-61
2024/03/24 08:36:48;;;;;;;2.17;1.70;;;11.00;99.90;;;;;;6155042;23;20461;-62
2024/03/24 08:39:15;;;;;;;2.67;1.90;;;11.50;99.90;;;;;;6154235;23;20485;-62
2024/03/24 08:41:42;;;;;;;6.17;2.10;;;12.10;99.90;;;;;;6154150;23;20434;-61
2024/03/24 08:44:10;;;;;;;2.07;1.87;;;12.90;99.90;;;;;;6154060;23;20406;-61
2024/03/24 08:46:36;;;;;;;4.20;1.97;;;13.30;99.90;;;;;;6154356;23;20410;-60
2024/03/24 08:49:02;;;;;;;3.77;2.93;;;13.20;99.90;;;;;;6153998;23;20437;-61
2024/03/24 08:51:29;;;;;;;3.90;2.40;;;13.10;99.90;;;;;;6154476;23;20437;-62
2024/03/24 08:53:55;;;;;;;4.93;2.90;;;13.50;99.90;;;;;;6154296;23;20681;-62
2024/03/24 08:56:23;;;;;;;4.57;2.87;;;13.50;99.90;;;;;;6155428;23;20433;-60
2024/03/24 08:58:49;;;;;;;4.67;3.00;;;14.00;99.90;;;;;;6154346;23;20175;-61
2024/03/24 09:01:16;;;;;;;4.07;2.60;;;14.50;99.90;;;;;;6154849;23;20433;-61
2024/03/24 09:03:42;;;;;;;3.50;2.67;;;14.40;99.90;;;;;;6154287;23;20199;-61
2024/03/24 09:06:09;;;;;;;2.70;1.97;;;14.40;99.90;;;;;;6154659;23;20453;-62
2024/03/24 09:08:34;;;;;;;3.67;2.30;;;14.50;99.50;;;;;;6154571;23;20210;-62
2024/03/24 09:11:01;;;;;;;2.97;2.30;;;14.50;99.20;;;;;;6154622;23;20768;-62
2024/03/24 09:13:29;;;;;;;2.23;1.83;;;14.70;97.90;;;;;;6153625;23;21001;-62
2024/03/24 09:15:56;;;;;;;5.30;2.50;;;13.80;99.20;;;;;;6154188;23;20413;-64
2024/03/24 09:18:22;;;;;;;2.90;1.97;;;13.10;99.90;;;;;;6154489;23;20421;-58
2024/03/24 09:20:48;;;;;;;3.00;1.90;;;12.80;99.90;;;;;;6154551;23;20486;-61
2024/03/24 09:23:15;;;;;;;8.00;2.10;;;12.30;99.90;;;;;;6154051;23;20962;-60
2024/03/24 09:25:42;;;;;;;3.93;2.60;;;11.80;99.90;;;;;;6154574;23;20774;-61
2024/03/24 09:28:08;;;;;;;7.70;2.33;;;11.30;99.90;;;;;;6154191;23;20501;-61
2024/03/24 09:30:36;;;;;;;6.63;2.33;;;10.80;99.90;;;;;;6154112;23;20438;-61
2024/03/24 09:33:02;;;;;;;2.80;2.23;;;10.20;99.90;;;;;;6153974;23;20423;-62
2024/03/24 09:35:31;;;;;;;3.10;2.47;;;9.80;99.90;;;;;;6153982;23;20456;-61
2024/03/24 09:37:57;;;;;;;3.37;2.00;;;9.50;99.90;;;;;;6154128;23;20406;-56
2024/03/24 09:40:24;;;;;;;3.23;2.60;;;9.20;99.90;;;;;;6153306;23;20405;-53
2024/03/24 09:42:50;;;;;;;5.90;3.13;;;9.00;99.90;;;;;;6153511;23;20717;-54
2024/03/24 09:45:19;;;;;;;11.90;6.13;;;8.70;99.90;;;;;;6154240;23;20398;-50
2024/03/24 09:47:48;;;;;;;4.53;2.83;;;8.50;99.90;;;;;;6154323;23;20485;-57
2024/03/24 09:50:15;;;;;;;5.33;3.10;;;8.50;99.90;;;;;;6154242;23;20520;-52
2024/03/24 09:52:44;;;;;;;2.97;2.10;;;8.30;99.90;;;;;;6153956;23;20513;-53
2024/03/24 09:55:15;;;;;;;3.20;2.33;;;8.30;99.90;;;;;;6154110;23;20402;-52
2024/03/24 09:57:42;;;;;;;4.77;3.03;;;8.20;99.90;;;;;;6154283;23;20426;-53
2024/03/24 10:00:10;;;;;;;11.50;5.43;;;8.20;99.90;;;;;;6153420;23;20964;-53
2024/03/24 10:02:36;;;;;;;5.43;3.53;;;8.30;99.90;;;;;;6153099;23;20422;-53
2024/03/24 10:05:06;;;;;;;15.80;6.37;;;8.20;99.90;;;;;;6153734;23;20468;-53
2024/03/24 10:07:32;;;;;;;9.07;3.33;;;8.20;99.90;;;;;;6154335;23;20658;-54
2024/03/24 10:09:58;;;;;;;3.10;2.60;;;8.20;99.90;;;;;;6153904;23;20445;-55
2024/03/24 10:12:24;;;;;;;5.20;2.83;;;8.10;99.90;;;;;;6151719;23;20457;-56
2024/03/24 10:14:51;;;;;;;4.07;2.80;;;8.00;99.90;;;;;;6152596;23;20449;-51
2024/03/24 10:17:19;;;;;;;5.10;2.30;;;7.80;99.90;;;;;;6152007;23;20386;-50
2024/03/24 10:19:47;;;;;;;3.47;1.97;;;7.60;99.90;;;;;;6151790;23;20402;-51
2024/03/24 10:22:14;;;;;;;2.10;1.90;;;7.50;99.90;;;;;;6153032;23;20426;-54
2024/03/24 10:24:44;;;;;;;3.87;2.70;;;7.30;99.90;;;;;;6153688;23;20410;-53
2024/03/24 10:27:12;;;;;;;2.40;1.80;;;7.20;99.90;;;;;;6154520;23;20735;-50
2024/03/24 10:29:38;;;;;;;4.23;1.67;;;7.20;99.90;;;;;;6154074;23;20402;-54
2024/03/24 10:32:06;;;;;;;2.07;1.60;;;7.10;99.90;;;;;;6153317;23;20433;-55
2024/03/24 10:34:32;;;;;;;2.30;2.10;;;7.00;99.90;;;;;;6153715;23;20406;-57
2024/03/24 10:36:59;;;;;;;2.40;1.47;;;6.90;99.90;;;;;;6154088;23;20402;-64
2024/03/24 10:39:27;;;;;;;2.43;1.93;;;6.80;99.90;;;;;;6153980;23;20402;-63
2024/03/24 10:41:55;;;;;;;1.83;1.57;;;6.70;99.90;;;;;;6152577;23;20727;-62
2024/03/24 10:44:25;;;;;;;7.93;1.87;;;6.60;99.90;;;;;;6151685;23;20653;-62
2024/03/24 10:46:54;;;;;;;3.00;2.07;;;6.60;99.90;;;;;;6152491;23;20889;-62
2024/03/24 10:49:24;;;;;;;3.50;2.03;;;6.60;99.90;;;;;;6153668;23;20402;-62
2024/03/24 10:51:53;;;;;;;2.83;2.10;;;6.60;99.90;;;;;;6152523;23;20794;-62
2024/03/24 10:54:20;;;;;;;3.40;2.20;;;6.60;99.90;;;;;;6153349;23;20490;-60
2024/03/24 10:56:48;;;;;;;2.63;2.13;;;6.70;99.90;;;;;;6153870;23;20445;-62
2024/03/24 10:59:16;;;;;;;3.80;2.50;;;6.80;99.90;;;;;;6153418;23;20417;-61
2024/03/24 11:01:43;;;;;;;4.87;3.20;;;6.80;99.90;;;;;;6153650;23;20789;-62
2024/03/24 11:04:11;;;;;;;8.90;2.80;;;6.90;99.90;;;;;;6153647;23;20402;-60
2024/03/24 11:06:39;;;;;;;5.73;2.27;;;6.90;99.90;;;;;;6154332;23;20432;-63
2024/03/24 11:09:06;;;;;;;4.13;2.60;;;6.90;99.90;;;;;;6155415;23;20893;-63
2024/03/24 11:11:33;;;;;;;3.40;2.63;;;6.90;99.90;;;;;;6154989;23;20442;-62
2024/03/24 11:14:02;;;;;;;3.70;2.67;;;6.90;99.90;;;;;;6155355;23;20402;-63
2024/03/24 11:16:29;;;;;;;6.20;3.77;;;6.90;99.90;;;;;;6156084;23;20461;-61
2024/03/24 11:19:06;;;;;;;3.70;3.07;;;7.00;99.90;;;;;;6155858;23;20947;-62
2024/03/24 11:21:34;;;;;;;6.83;3.40;;;7.10;99.90;;;;;;6155651;23;20421;-61
2024/03/24 11:24:01;;;;;;;4.90;2.90;;;7.00;99.90;;;;;;6154755;23;20464;-63
2024/03/24 11:26:32;;;;;;;4.53;3.40;;;7.10;99.90;;;;;;6155061;23;20481;-62
2024/03/24 11:28:59;;;;;;;4.93;3.30;;;7.10;99.90;;;;;;6155090;23;20436;-61
2024/03/24 11:31:37;;;;;;;2.97;2.40;;;7.10;99.90;;;;;;6155307;23;20470;-61
2024/03/24 11:34:05;;;;;;;6.50;3.60;;;7.10;99.90;;;;;;6155035;23;20853;-60
2024/03/24 11:36:32;;;;;;;5.13;3.30;;;7.00;99.90;;;;;;6155286;23;20493;-64
2024/03/24 11:39:00;;;;;;;4.00;2.70;;;7.00;99.90;;;;;;6155337;23;20402;-63
2024/03/24 11:41:26;;;;;;;5.63;2.73;;;7.10;99.90;;;;;;6155016;23;20473;-63
2024/03/24 11:43:54;;;;;;;4.73;2.93;;;7.00;99.90;;;;;;6152899;23;20406;-63
2024/03/24 11:46:20;;;;;;;5.33;3.53;;;6.90;99.90;;;;;;6154876;23;20402;-62
2024/03/24 11:48:51;;;;;;;3.67;2.67;;;6.90;99.90;;;;;;6153876;23;20428;-63
2024/03/24 11:51:17;;;;;;;3.60;2.30;;;6.90;99.90;;;;;;6155015;23;20426;-62
2024/03/24 11:53:44;;;;;;;4.33;3.23;;;6.90;99.90;;;;;;6153377;23;20421;-64
2024/03/24 11:56:10;;;;;;;4.97;3.23;;;6.90;99.90;;;;;;6153246;23;20402;-63
2024/03/24 11:58:38;;;;;;;2.83;2.23;;;6.90;99.90;;;;;;6155068;23;20410;-63
2024/03/24 12:01:08;;;;;;;3.60;2.20;;;6.90;99.90;;;;;;6154314;23;20927;-64
2024/03/24 12:03:34;;;;;;;4.57;3.00;;;6.90;99.90;;;;;;6154069;23;20450;-62
2024/03/24 12:06:04;;;;;;;8.03;3.33;;;6.90;99.90;;;;;;6154452;23;20461;-64
2024/03/24 12:08:31;;;;;;;8.50;2.90;;;6.90;99.90;;;;;;6154609;23;20531;-63
2024/03/24 12:10:57;;;;;;;4.40;2.17;;;6.90;99.90;;;;;;6154634;23;20437;-63
2024/03/24 12:13:24;;;;;;;3.87;2.40;;;6.80;99.90;;;;;;6153815;23;20814;-61
2024/03/24 12:15:50;;;;;;;2.97;2.43;;;6.80;99.90;;;;;;6154589;23;20417;-63
2024/03/24 12:18:17;;;;;;;3.60;2.47;;;6.90;99.90;;;;;;6154678;23;20403;-64
2024/03/24 12:20:43;;;;;;;4.47;2.90;;;7.00;99.90;;;;;;6154531;23;20758;-62
2024/03/24 12:23:11;;;;;;;5.07;2.50;;;7.10;99.90;;;;;;6154009;23;20422;-63
2024/03/24 12:25:43;;;;;;;5.90;2.70;;;7.20;99.90;;;;;;6154485;23;20438;-63
2024/03/24 12:28:15;;;;;;;6.67;2.43;;;7.20;99.90;;;;;;6154502;23;20386;-63
2024/03/24 12:30:48;;;;;;;4.27;2.27;;;7.30;99.90;;;;;;6153832;23;20430;-63
2024/03/24 12:33:15;;;;;;;4.00;2.23;;;7.50;99.90;;;;;;6154015;23;20426;-63
2024/03/24 12:35:41;;;;;;;2.67;2.23;;;7.60;99.90;;;;;;6154103;23;20409;-61
2024/03/24 12:38:08;;;;;;;4.27;2.67;;;7.60;99.90;;;;;;6155036;23;20426;-62
2024/03/24 12:40:36;;;;;;;4.43;2.67;;;7.70;99.90;;;;;;6154577;23;20481;-62
2024/03/24 12:43:12;;;;;;;2.40;2.10;;;7.80;99.90;;;;;;6153755;23;20430;-61
2024/03/24 12:45:38;;;;;;;5.23;3.20;;;7.80;99.90;;;;;;6152832;23;20499;-61
2024/03/24 12:48:10;;;;;;;3.50;2.90;;;7.80;99.90;;;;;;6153287;23;20782;-62
2024/03/24 12:50:36;;;;;;;5.73;2.87;;;7.90;99.90;;;;;;6152654;23;20429;-60
2024/03/24 12:53:11;;;;;;;5.57;3.23;;;7.90;99.90;;;;;;6153809;23;20477;-62
2024/03/24 12:55:41;;;;;;;5.60;4.03;;;8.00;99.90;;;;;;6153177;23;20417;-63